Time;durP1;ratioP1;P1;durP2;ratioP2;P2;SDS_P1;SDS_P2;PMS_P1;PMS_P2;Temp;Humidity;BMP_temperature;BMP_pressure;BME280_temperature;BME280_humidity;BME280_pressure;Samples;Min_cycle;Max_cycle;Signal;HPM_P1;HPM_P2
2023/05/23 00:00:32;;;;;;;;;;;;;;;16.02;72.77;94982.63;5057333;28;1997;-53
2023/05/23 00:02:59;;;;;;;;;;;;;;;15.89;74.23;94982.56;5075028;28;1235;-53
2023/05/23 00:05:25;;;;;;;;;;;;;;;15.66;75.58;94989.00;5075207;28;1053;-53
2023/05/23 00:07:51;;;;;;;;;;;;;;;15.49;75.76;94990.31;5075112;28;1036;-53
2023/05/23 00:10:18;;;;;;;;;;;;;;;15.34;76.59;94993.94;5074800;28;1589;-53
2023/05/23 00:12:46;;;;;;;;;;;;;;;15.12;77.95;95000.34;5074981;28;1067;-53
2023/05/23 00:15:13;;;;;;;;;;;;;;;15.02;78.76;94985.38;5074800;28;1056;-53
2023/05/23 00:17:39;;;;;;;;;;;;;;;14.92;78.99;94987.53;5075213;28;997;-53
2023/05/23 00:20:08;;;;;;;;;;;;;;;14.82;79.43;94989.72;5074579;28;1996;-53
2023/05/23 00:22:35;;;;;;;;;;;;;;;14.72;79.48;94989.19;5074841;28;1250;-53
2023/05/23 00:25:01;;;;;;;;;;;;;;;14.62;80.39;94995.72;5074765;28;1045;-53
2023/05/23 00:27:27;;;;;;;;;;;;;;;14.43;80.90;94997.13;5074728;28;1001;-53
2023/05/23 00:29:53;;;;;;;;;;;;;;;14.30;81.13;94991.56;5074786;28;1025;-53
2023/05/23 00:32:19;;;;;;;;;;;;;;;14.06;81.75;94993.56;5074372;28;958;-53
2023/05/23 00:34:45;;;;;;;;;;;;;;;13.88;81.67;94997.66;5074586;28;1065;-53
2023/05/23 00:37:11;;;;;;;;;;;;;;;13.89;82.12;95004.69;5074511;28;968;-53
2023/05/23 00:39:37;;;;;;;;;;;;;;;13.84;82.44;95003.38;5074380;28;1987;-53
2023/05/23 00:42:04;;;;;;;;;;;;;;;13.84;81.46;95003.38;5074382;28;1044;-53
2023/05/23 00:44:30;;;;;;;;;;;;;;;13.96;80.66;95003.78;5073757;28;1319;-53
2023/05/23 00:46:56;;;;;;;;;;;;;;;13.94;80.29;95004.97;5074147;28;1964;-53
2023/05/23 00:49:22;;;;;;;;;;;;;;;13.97;79.58;95007.28;5073964;28;1054;-52
2023/05/23 00:51:49;;;;;;;;;;;;;;;13.81;81.05;95002.91;5074078;28;1062;-53
2023/05/23 00:54:17;;;;;;;;;;;;;;;13.69;80.64;94999.03;5073815;28;1059;-53
2023/05/23 00:56:43;;;;;;;;;;;;;;;13.73;80.15;95000.31;5074208;28;1044;-53
2023/05/23 00:59:11;;;;;;;;;;;;;;;13.63;81.14;95001.41;5073686;28;1913;-53
2023/05/23 01:01:37;;;;;;;;;;;;;;;13.54;80.92;95007.06;5073847;28;1169;-53
2023/05/23 01:04:03;;;;;;;;;;;;;;;13.41;82.08;95000.47;5073822;28;1536;-53
2023/05/23 01:06:29;;;;;;;;;;;;;;;13.37;81.58;94996.47;5073663;28;1057;-53
2023/05/23 01:08:55;;;;;;;;;;;;;;;13.40;81.22;94996.13;5073837;28;1548;-53
2023/05/23 01:11:50;;;;;;;;;;;;;;;13.40;80.81;94990.75;5073663;28;1650;-53
2023/05/23 01:14:20;;;;;;;;;;;;;;;13.31;81.54;94991.84;5019251;28;1170;-53
2023/05/23 01:16:52;;;;;;;;;;;;;;;13.21;81.85;94980.50;5073671;28;1120;-53
2023/05/23 01:19:44;;;;;;;;;;;;;;;13.19;81.83;94977.97;5073651;28;1917;-53
2023/05/23 01:22:15;;;;;;;;;;;;;;;13.05;82.63;94978.75;5050084;28;1987;-53
2023/05/23 01:25:05;;;;;;;;;;;;;;;13.14;81.28;94987.59;5073738;28;963;-53
2023/05/23 01:27:44;;;;;;;;;;;;;;;13.19;81.36;94986.03;5073440;28;1211;-53
2023/05/23 01:30:12;;;;;;;;;;;;;;;13.11;81.37;94979.91;5073495;28;966;-53
2023/05/23 01:32:39;;;;;;;;;;;;;;;13.09;81.31;94982.78;5073396;28;1108;-53
2023/05/23 01:35:05;;;;;;;;;;;;;;;13.23;80.27;94973.91;5073401;28;1021;-53
2023/05/23 01:37:31;;;;;;;;;;;;;;;13.38;79.71;94979.34;5073602;28;973;-53
2023/05/23 01:39:57;;;;;;;;;;;;;;;13.35;80.46;94977.03;5073246;28;1916;-53
2023/05/23 01:42:23;;;;;;;;;;;;;;;13.05;81.47;94978.75;5073601;28;1053;-53
2023/05/23 01:44:49;;;;;;;;;;;;;;;12.77;82.61;94975.81;5073169;28;1995;-53
2023/05/23 01:47:15;;;;;;;;;;;;;;;12.33;84.67;94974.59;5073226;28;934;-53
2023/05/23 01:49:43;;;;;;;;;;;;;;;12.32;84.34;94972.91;5073308;28;993;-53
2023/05/23 01:52:10;;;;;;;;;;;;;;;12.27;84.83;94981.50;5073086;28;1049;-53
2023/05/23 01:54:37;;;;;;;;;;;;;;;12.29;85.81;94970.56;5072714;28;1036;-53
2023/05/23 01:57:04;;;;;;;;;;;;;;;12.39;85.26;94981.09;5073494;28;1006;-53
2023/05/23 01:59:30;;;;;;;;;;;;;;;12.42;84.62;94978.03;5072953;28;1989;-53
2023/05/23 02:01:56;;;;;;;;;;;;;;;12.30;85.17;94973.06;5073079;28;1505;-53
2023/05/23 02:04:22;;;;;;;;;;;;;;;12.41;84.60;94977.22;5073008;28;1089;-53
2023/05/23 02:06:48;;;;;;;;;;;;;;;12.38;85.29;94974.06;5073353;28;1000;-53
2023/05/23 02:09:15;;;;;;;;;;;;;;;12.27;85.50;94975.28;5072850;28;1549;-53
2023/05/23 02:11:41;;;;;;;;;;;;;;;12.36;85.56;94973.41;5055258;28;1089;-53
2023/05/23 02:14:08;;;;;;;;;;;;;;;12.01;85.34;94979.09;5073131;28;1037;-53
2023/05/23 02:16:35;;;;;;;;;;;;;;;11.68;86.62;94976.47;5073076;28;1033;-53
2023/05/23 02:19:01;;;;;;;;;;;;;;;11.57;87.25;94974.16;5072846;28;1906;-53
2023/05/23 02:21:27;;;;;;;;;;;;;;;11.71;87.27;94978.00;5073090;28;1067;-53
2023/05/23 02:23:53;;;;;;;;;;;;;;;11.69;87.31;94983.53;5073078;28;1009;-53
2023/05/23 02:26:19;;;;;;;;;;;;;;;11.66;87.03;94981.19;5073123;28;962;-53
2023/05/23 02:28:45;;;;;;;;;;;;;;;11.79;86.80;94983.31;5073159;28;1013;-52
2023/05/23 02:31:10;;;;;;;;;;;;;;;11.94;86.20;94974.63;5072818;28;997;-53
2023/05/23 02:33:36;;;;;;;;;;;;;;;12.16;85.76;94987.25;5055011;28;1109;-53
2023/05/23 02:36:03;;;;;;;;;;;;;;;12.07;84.48;94975.72;5073019;28;1044;-53
2023/05/23 02:38:29;;;;;;;;;;;;;;;11.57;86.24;94984.88;5072719;28;982;-53
2023/05/23 02:40:56;;;;;;;;;;;;;;;11.50;86.77;94982.06;5072956;28;1906;-53
2023/05/23 02:43:22;;;;;;;;;;;;;;;11.57;86.89;94984.06;5072623;28;1247;-53
2023/05/23 02:45:48;;;;;;;;;;;;;;;11.46;86.91;94975.41;5072950;28;1041;-53
2023/05/23 02:48:15;;;;;;;;;;;;;;;11.33;87.29;94978.59;5072594;28;1217;-53
2023/05/23 02:50:41;;;;;;;;;;;;;;;11.33;87.76;94985.78;5072906;28;1041;-53
2023/05/23 02:53:07;;;;;;;;;;;;;;;11.38;87.21;94985.25;5054798;28;1022;-53
2023/05/23 02:55:33;;;;;;;;;;;;;;;11.36;87.83;94985.44;5072881;28;1021;-52
2023/05/23 02:57:59;;;;;;;;;;;;;;;11.51;87.22;94973.03;5072864;28;966;-53
2023/05/23 03:00:25;;;;;;;;;;;;;;;11.53;86.91;94987.09;5072542;28;1891;-53
2023/05/23 03:02:51;;;;;;;;;;;;;;;11.35;88.20;94981.09;5072850;28;1037;-54
2023/05/23 03:05:17;;;;;;;;;;;;;;;11.25;88.15;94983.97;5054651;28;1006;-53
2023/05/23 03:07:44;;;;;;;;;;;;;;;11.41;87.96;94983.09;5074391;28;1052;-53
2023/05/23 03:10:10;;;;;;;;;;;;;;;11.52;87.06;94980.06;5075999;28;1548;-54
2023/05/23 03:12:36;;;;;;;;;;;;;;;11.60;86.79;94973.84;5076128;28;1063;-54
2023/05/23 03:15:03;;;;;;;;;;;;;;;11.63;86.76;94980.69;5076173;28;1060;-53
2023/05/23 03:17:29;;;;;;;;;;;;;;;11.35;87.13;94989.13;5075873;28;1037;-54
2023/05/23 03:19:55;;;;;;;;;;;;;;;11.38;87.32;94993.28;5075774;28;1909;-53
2023/05/23 03:22:20;;;;;;;;;;;;;;;11.52;87.34;94985.41;5058300;28;1204;-53
2023/05/23 03:24:47;;;;;;;;;;;;;;;11.44;88.42;94998.81;5075959;28;978;-54
2023/05/23 03:27:13;;;;;;;;;;;;;;;11.52;88.05;95001.47;5075860;28;1079;-53
2023/05/23 03:29:39;;;;;;;;;;;;;;;11.77;86.99;94996.06;5076170;28;977;-53
2023/05/23 03:32:05;;;;;;;;;;;;;;;12.06;85.67;95000.81;5075981;28;1042;-53
2023/05/23 03:34:32;;;;;;;;;;;;;;;12.09;85.84;95002.34;5075502;28;1088;-53
2023/05/23 03:36:58;;;;;;;;;;;;;;;11.97;85.21;95011.75;5075774;28;978;-53
2023/05/23 03:39:24;;;;;;;;;;;;;;;12.04;85.96;95002.84;5075511;28;1992;-53
2023/05/23 03:41:50;;;;;;;;;;;;;;;12.21;85.86;94995.56;5075484;28;1062;-53
2023/05/23 03:44:16;;;;;;;;;;;;;;;12.37;85.38;94994.66;5057539;28;1896;-54
2023/05/23 03:46:42;;;;;;;;;;;;;;;12.25;85.21;94996.88;5075674;28;1167;-54
2023/05/23 03:49:08;;;;;;;;;;;;;;;12.08;85.93;94997.97;5075252;28;1037;-53
2023/05/23 03:51:34;;;;;;;;;;;;;;;12.09;86.41;94994.31;5075230;28;1089;-54
2023/05/23 03:54:00;;;;;;;;;;;;;;;12.08;87.19;95000.66;5075411;28;1046;-53
2023/05/23 03:56:27;;;;;;;;;;;;;;;12.30;86.98;94999.88;5075107;28;1128;-54
2023/05/23 03:58:53;;;;;;;;;;;;;;;12.59;86.07;95003.75;5075140;28;1987;-53
2023/05/23 04:01:19;;;;;;;;;;;;;;;12.86;85.11;95005.09;5057372;28;974;-53
2023/05/23 04:03:45;;;;;;;;;;;;;;;13.09;83.70;94994.34;5074976;28;1144;-54
2023/05/23 04:06:11;;;;;;;;;;;;;;;13.22;83.78;94995.56;5074871;28;1093;-54
2023/05/23 04:08:37;;;;;;;;;;;;;;;13.44;82.88;95001.97;5075107;28;1547;-54
2023/05/23 04:11:03;;;;;;;;;;;;;;;13.53;83.08;95010.78;5075171;28;996;-54
2023/05/23 04:13:29;;;;;;;;;;;;;;;13.31;83.16;95010.63;5074737;28;1066;-54
2023/05/23 04:15:56;;;;;;;;;;;;;;;13.52;82.29;95009.94;5074741;28;1206;-54
2023/05/23 04:18:22;;;;;;;;;;;;;;;13.75;82.71;95009.03;5074138;28;1061;-53
2023/05/23 04:20:48;;;;;;;;;;;;;;;14.04;82.44;95008.22;5074241;28;2491;-54
2023/05/23 04:23:14;;;;;;;;;;;;;;;14.02;81.77;95004.88;5057002;28;1199;-54
2023/05/23 04:25:40;;;;;;;;;;;;;;;14.09;82.06;95010.34;5074748;28;1029;-54
2023/05/23 04:28:09;;;;;;;;;;;;;;;14.26;81.29;95001.03;5074745;28;1014;-53
2023/05/23 04:30:35;;;;;;;;;;;;;;;14.36;79.74;95006.97;5056784;28;1621;-53
2023/05/23 04:33:01;;;;;;;;;;;;;;;14.60;79.08;95005.00;5074654;28;959;-53
2023/05/23 04:35:27;;;;;;;;;;;;;;;14.76;75.89;95001.22;5074272;28;1038;-54
2023/05/23 04:37:56;;;;;;;;;;;;;;;14.97;76.21;95013.91;5074550;28;1001;-53
2023/05/23 04:40:23;;;;;;;;;;;;;;;15.07;76.82;95016.28;5074111;28;1909;-54
2023/05/23 04:42:50;;;;;;;;;;;;;;;15.20;74.83;95003.75;5074032;28;1279;-54
2023/05/23 04:45:18;;;;;;;;;;;;;;;15.44;74.71;95015.13;5073975;28;1034;-54
2023/05/23 04:47:44;;;;;;;;;;;;;;;15.78;74.03;95021.66;5056484;28;977;-54
2023/05/23 04:50:10;;;;;;;;;;;;;;;15.80;74.32;95015.06;5072780;28;1319;-54
2023/05/23 04:52:36;;;;;;;;;;;;;;;15.84;74.02;95022.75;5073999;28;1041;-54
2023/05/23 04:55:03;;;;;;;;;;;;;;;15.73;72.90;95022.25;5073961;28;1022;-54
2023/05/23 04:57:29;;;;;;;;;;;;;;;16.00;74.60;95019.75;5073895;28;962;-54
2023/05/23 04:59:56;;;;;;;;;;;;;;;16.16;73.99;95023.97;5073790;28;1991;-54
2023/05/23 05:02:22;;;;;;;;;;;;;;;16.35;72.55;95027.81;5073675;28;1069;-54
2023/05/23 05:04:48;;;;;;;;;;;;;;;16.43;72.38;95027.66;5073979;28;1013;-54
2023/05/23 05:07:14;;;;;;;;;;;;;;;16.62;71.15;95028.78;5073847;28;1177;-54
2023/05/23 05:09:40;;;;;;;;;;;;;;;16.66;71.43;95029.22;5073675;28;1237;-53
2023/05/23 05:12:07;;;;;;;;;;;;;;;17.01;68.90;95027.25;5074018;28;1008;-54
2023/05/23 05:14:33;;;;;;;;;;;;;;;17.39;68.60;95029.41;5055825;28;946;-53
2023/05/23 05:17:01;;;;;;;;;;;;;;;17.72;67.19;95023.19;5056211;28;1001;-53
2023/05/23 05:19:27;;;;;;;;;;;;;;;17.84;65.99;95021.53;5073460;28;1997;-53
2023/05/23 05:21:53;;;;;;;;;;;;;;;18.01;64.09;95019.25;5073614;28;1021;-53
2023/05/23 05:24:21;;;;;;;;;;;;;;;18.04;64.65;95026.09;5055589;28;1038;-53
2023/05/23 05:26:47;;;;;;;;;;;;;;;18.28;63.09;95028.13;5073783;28;1039;-53
2023/05/23 05:29:13;;;;;;;;;;;;;;;18.24;64.79;95023.38;5073154;28;1036;-53
2023/05/23 05:31:39;;;;;;;;;;;;;;;18.22;64.71;95033.56;5072988;28;1111;-53
2023/05/23 05:34:05;;;;;;;;;;;;;;;18.21;63.35;95032.75;5073488;28;1034;-53
2023/05/23 05:36:31;;;;;;;;;;;;;;;18.37;63.01;95025.22;5073290;28;1027;-53
2023/05/23 05:38:58;;;;;;;;;;;;;;;18.69;64.54;95029.66;5073194;28;1910;-53
2023/05/23 05:41:23;;;;;;;;;;;;;;;18.68;63.56;95032.59;5055534;28;1137;-54
2023/05/23 05:43:50;;;;;;;;;;;;;;;18.85;62.60;95031.06;5055390;28;1097;-54
2023/05/23 05:46:16;;;;;;;;;;;;;;;19.40;62.96;95030.56;5073298;28;1056;-53
2023/05/23 05:48:42;;;;;;;;;;;;;;;19.67;62.87;95025.78;5073440;28;966;-53
2023/05/23 05:51:07;;;;;;;;;;;;;;;19.96;61.54;95015.34;5073283;28;1040;-53
2023/05/23 05:53:33;;;;;;;;;;;;;;;20.21;62.15;95022.63;5073010;28;1892;-53
2023/05/23 05:56:00;;;;;;;;;;;;;;;20.56;61.34;95017.41;5073349;28;1052;-53
2023/05/23 05:58:25;;;;;;;;;;;;;;;20.82;59.76;95023.63;5072944;28;1046;-53
2023/05/23 06:00:52;;;;;;;;;;;;;;;20.94;59.95;95019.09;5072923;28;1910;-53
2023/05/23 06:03:18;;;;;;;;;;;;;;;21.28;59.42;95016.75;5072946;28;1085;-53
2023/05/23 06:05:44;;;;;;;;;;;;;;;21.35;57.88;95020.19;5055053;28;1215;-53
2023/05/23 06:08:10;;;;;;;;;;;;;;;21.22;57.41;95015.78;5073009;28;1241;-53
2023/05/23 06:10:37;;;;;;;;;;;;;;;21.51;58.02;95018.72;5072907;28;1058;-53
2023/05/23 06:13:03;;;;;;;;;;;;;;;21.69;57.29;95017.00;5073089;28;1097;-53
2023/05/23 06:15:29;;;;;;;;;;;;;;;21.76;56.75;95013.13;5073093;28;1041;-53
2023/05/23 06:17:55;;;;;;;;;;;;;;;21.83;55.25;95013.84;5073020;28;929;-54
2023/05/23 06:20:21;;;;;;;;;;;;;;;21.77;55.10;95012.03;5072989;28;2004;-53
2023/05/23 06:22:47;;;;;;;;;;;;;;;21.87;56.41;95008.75;5072485;28;970;-53
2023/05/23 06:25:13;;;;;;;;;;;;;;;22.44;55.49;95015.53;5072802;28;990;-53
2023/05/23 06:27:40;;;;;;;;;;;;;;;22.43;51.50;95014.69;5072437;28;1013;-53
2023/05/23 06:30:06;;;;;;;;;;;;;;;22.67;53.33;95012.78;5072664;28;1876;-53
2023/05/23 06:32:32;;;;;;;;;;;;;;;22.80;49.75;95015.22;5072904;28;1401;-53
2023/05/23 06:34:58;;;;;;;;;;;;;;;22.60;50.46;95014.78;5072707;28;1321;-53
2023/05/23 06:37:24;;;;;;;;;;;;;;;23.09;49.84;95020.75;5072791;28;978;-53
2023/05/23 06:39:50;;;;;;;;;;;;;;;23.08;46.61;95012.81;5073146;28;1993;-53
2023/05/23 06:42:16;;;;;;;;;;;;;;;23.11;49.47;95010.41;5074407;28;1097;-53
2023/05/23 06:44:42;;;;;;;;;;;;;;;23.03;48.85;95008.09;5076194;28;1331;-53
2023/05/23 06:47:08;;;;;;;;;;;;;;;23.29;48.22;95008.56;5076674;28;1018;-53
2023/05/23 06:49:34;;;;;;;;;;;;;;;23.50;48.75;95024.22;5076528;28;1104;-53
2023/05/23 06:52:00;;;;;;;;;;;;;;;23.72;48.05;95010.69;5076168;28;1184;-54
2023/05/23 06:54:26;;;;;;;;;;;;;;;24.02;46.62;95012.31;5076431;28;1043;-54
2023/05/23 06:56:51;;;;;;;;;;;;;;;24.04;47.00;95021.09;5076196;28;1017;-53
2023/05/23 06:59:18;;;;;;;;;;;;;;;24.08;45.37;95013.22;5075962;28;1987;-54
2023/05/23 07:01:44;;;;;;;;;;;;;;;24.03;46.28;95007.69;5076367;28;1032;-53
2023/05/23 07:04:11;;;;;;;;;;;;;;;24.11;47.45;95008.09;5076345;28;1029;-54
2023/05/23 07:06:38;;;;;;;;;;;;;;;24.28;45.84;95013.56;5076123;28;961;-54
2023/05/23 07:09:04;;;;;;;;;;;;;;;24.20;46.76;95011.22;5076145;28;1245;-54
2023/05/23 07:11:30;;;;;;;;;;;;;;;24.44;46.30;95006.38;5076204;28;1052;-54
2023/05/23 07:13:57;;;;;;;;;;;;;;;24.52;46.64;94999.69;5057996;28;1050;-54
2023/05/23 07:16:23;;;;;;;;;;;;;;;24.80;43.88;95009.63;5076035;28;986;-54
2023/05/23 07:18:49;;;;;;;;;;;;;;;24.96;45.59;94996.16;5076004;28;1906;-54
2023/05/23 07:21:15;;;;;;;;;;;;;;;24.94;44.26;95004.59;5075714;28;1034;-54
2023/05/23 07:23:41;;;;;;;;;;;;;;;25.20;43.79;94996.72;5075847;28;1031;-54
2023/05/23 07:26:08;;;;;;;;;;;;;;;24.70;44.44;94993.94;5076157;28;1088;-54
2023/05/23 07:28:35;;;;;;;;;;;;;;;24.91;45.15;94988.72;5075743;28;1025;-53
2023/05/23 07:31:01;;;;;;;;;;;;;;;25.08;43.50;94994.09;5075799;28;965;-53
2023/05/23 07:33:27;;;;;;;;;;;;;;;25.07;43.04;94987.81;5075433;28;1030;-53
2023/05/23 07:35:53;;;;;;;;;;;;;;;25.10;44.41;94984.56;5075590;28;1028;-54
2023/05/23 07:38:19;;;;;;;;;;;;;;;25.31;42.86;94993.03;5075485;28;1053;-53
2023/05/23 07:40:45;;;;;;;;;;;;;;;24.78;43.65;94983.63;5075333;28;1985;-54
2023/05/23 07:43:11;;;;;;;;;;;;;;;25.00;44.77;94983.63;5075044;28;1093;-54
2023/05/23 07:45:37;;;;;;;;;;;;;;;25.71;42.73;94989.03;5075358;28;1105;-54
2023/05/23 07:48:03;;;;;;;;;;;;;;;26.00;42.61;94989.56;5075257;28;1096;-54
2023/05/23 07:50:30;;;;;;;;;;;;;;;26.30;43.01;94993.63;5075261;28;977;-54
2023/05/23 07:52:56;;;;;;;;;;;;;;;26.02;41.57;94994.78;5074332;28;1962;-54
2023/05/23 07:55:23;;;;;;;;;;;;;;;25.75;39.00;95000.28;5075054;28;1054;-54
2023/05/23 07:57:49;;;;;;;;;;;;;;;25.36;39.87;94994.97;5075007;28;1052;-53
2023/05/23 08:00:15;;;;;;;;;;;;;;;25.50;41.52;94994.31;5075125;28;1910;-54
2023/05/23 08:02:41;;;;;;;;;;;;;;;25.85;41.84;94984.75;5057480;28;1006;-54
2023/05/23 08:05:08;;;;;;;;;;;;;;;25.78;39.68;94997.88;5075034;28;1009;-54
2023/05/23 08:07:34;;;;;;;;;;;;;;;25.55;37.49;94999.00;5075252;28;1101;-54
2023/05/23 08:10:00;;;;;;;;;;;;;;;25.84;39.85;94987.78;5074680;28;1233;-54
2023/05/23 08:12:26;;;;;;;;;;;;;;;26.38;37.61;94995.03;5074883;28;1053;-53
2023/05/23 08:14:52;;;;;;;;;;;;;;;25.69;36.67;94999.44;5074649;28;1089;-54
2023/05/23 08:17:18;;;;;;;;;;;;;;;25.92;37.75;94992.00;5074915;28;1029;-54
2023/05/23 08:19:44;;;;;;;;;;;;;;;25.70;38.08;94988.19;5074548;28;1965;-54
2023/05/23 08:22:10;;;;;;;;;;;;;;;25.27;39.19;94981.78;5074512;28;1022;-55
2023/05/23 08:24:36;;;;;;;;;;;;;;;25.55;38.74;94982.56;5074600;28;1029;-56
2023/05/23 08:27:02;;;;;;;;;;;;;;;25.60;41.66;94976.34;5074448;28;1058;-54
2023/05/23 08:29:28;;;;;;;;;;;;;;;25.92;40.39;94970.06;5074171;28;1089;-54
2023/05/23 08:31:54;;;;;;;;;;;;;;;26.26;39.23;94978.81;5074545;28;1018;-55
2023/05/23 08:34:20;;;;;;;;;;;;;;;26.19;40.14;94976.28;5074373;28;966;-55
2023/05/23 08:36:46;;;;;;;;;;;;;;;26.28;38.15;94976.63;5056624;28;1874;-54
2023/05/23 08:39:12;;;;;;;;;;;;;;;26.34;38.18;94978.31;5074239;28;1918;-54
2023/05/23 08:41:38;;;;;;;;;;;;;;;26.30;38.86;94975.25;5074153;28;1049;-55
2023/05/23 08:44:04;;;;;;;;;;;;;;;26.26;38.49;94976.88;5074175;28;1105;-55
2023/05/23 08:46:31;;;;;;;;;;;;;;;26.48;39.25;94971.28;5074300;28;1096;-54
2023/05/23 08:48:58;;;;;;;;;;;;;;;25.98;37.52;94974.50;5074358;28;974;-55
2023/05/23 08:51:25;;;;;;;;;;;;;;;26.43;38.65;94968.50;5074019;28;1066;-55
2023/05/23 08:53:58;;;;;;;;;;;;;;;26.48;38.24;94964.94;5056612;28;989;-55
2023/05/23 08:56:27;;;;;;;;;;;;;;;25.57;38.23;94968.63;5073908;28;958;-55
2023/05/23 08:58:53;;;;;;;;;;;;;;;25.98;38.11;94963.53;5074109;28;1988;-55
2023/05/23 09:01:21;;;;;;;;;;;;;;;25.89;38.48;94968.63;5073812;28;1887;-55
2023/05/23 09:03:49;;;;;;;;;;;;;;;25.69;38.54;94961.91;5073820;28;957;-55
2023/05/23 09:06:17;;;;;;;;;;;;;;;25.62;39.31;94960.47;5073746;28;1963;-55
2023/05/23 09:08:45;;;;;;;;;;;;;;;26.00;38.13;94966.84;5073696;28;1535;-55
2023/05/23 09:11:12;;;;;;;;;;;;;;;26.31;37.75;94956.91;5073855;28;1009;-55
2023/05/23 09:13:41;;;;;;;;;;;;;;;26.41;38.60;94967.13;5073862;28;1049;-55
2023/05/23 09:16:11;;;;;;;;;;;;;;;26.58;38.17;94962.28;5073704;28;1974;-55
2023/05/23 09:18:37;;;;;;;;;;;;;;;26.76;36.09;94968.41;5073519;28;1037;-55
2023/05/23 09:21:03;;;;;;;;;;;;;;;26.82;35.11;94968.16;5073593;28;1902;-55
2023/05/23 09:23:30;;;;;;;;;;;;;;;26.58;35.15;94961.44;5073425;28;1042;-56
2023/05/23 09:26:00;;;;;;;;;;;;;;;26.41;36.31;94956.97;5055700;28;1909;-56
2023/05/23 09:28:26;;;;;;;;;;;;;;;26.15;34.55;94963.38;5073685;28;933;-56
2023/05/23 09:31:02;;;;;;;;;;;;;;;25.97;34.48;94957.25;5073748;28;981;-55
2023/05/23 09:33:32;;;;;;;;;;;;;;;25.98;38.01;94949.84;5073270;28;1104;-55
2023/05/23 09:35:58;;;;;;;;;;;;;;;25.97;37.08;94951.78;5073671;28;1036;-55
2023/05/23 09:38:25;;;;;;;;;;;;;;;26.08;36.42;94949.91;5073511;28;1057;-55
2023/05/23 09:40:54;;;;;;;;;;;;;;;25.89;36.41;94944.81;5073319;28;1977;-55
2023/05/23 09:43:20;;;;;;;;;;;;;;;26.20;37.31;94947.81;5073242;28;1251;-56
2023/05/23 09:45:46;;;;;;;;;;;;;;;26.20;34.08;94953.28;5073282;28;1886;-55
2023/05/23 09:48:12;;;;;;;;;;;;;;;26.36;36.95;94942.41;5073147;28;1037;-55
2023/05/23 09:50:38;;;;;;;;;;;;;;;25.93;34.72;94942.41;5073519;28;980;-55
2023/05/23 09:53:04;;;;;;;;;;;;;;;25.33;37.96;94950.63;5073512;28;1330;-55
2023/05/23 09:55:30;;;;;;;;;;;;;;;25.04;38.59;94941.00;5073364;28;1015;-55
2023/05/23 09:57:57;;;;;;;;;;;;;;;25.06;38.15;94941.56;5073407;28;1035;-55
2023/05/23 10:00:24;;;;;;;;;;;;;;;25.77;37.59;94935.16;5073355;28;1910;-55
2023/05/23 10:02:54;;;;;;;;;;;;;;;26.29;36.84;94929.78;5073133;28;1180;-55
2023/05/23 10:05:30;;;;;;;;;;;;;;;26.58;35.71;94934.88;5072899;28;1049;-55
2023/05/23 10:07:59;;;;;;;;;;;;;;;27.00;35.88;94928.47;5073092;28;1117;-55
2023/05/23 10:10:27;;;;;;;;;;;;;;;27.18;35.66;94927.13;5073170;28;1276;-56
2023/05/23 10:12:55;;;;;;;;;;;;;;;27.18;32.41;94940.03;5073327;28;970;-55
2023/05/23 10:15:24;;;;;;;;;;;;;;;27.12;35.45;94927.41;5073150;28;1029;-55
2023/05/23 10:18:02;;;;;;;;;;;;;;;27.16;34.53;94928.50;5076918;28;1044;-55
2023/05/23 10:20:30;;;;;;;;;;;;;;;26.88;36.31;94925.13;5077196;28;1906;-55
2023/05/23 10:23:00;;;;;;;;;;;;;;;26.13;35.20;94914.34;5059262;28;1043;-55
2023/05/23 10:25:27;;;;;;;;;;;;;;;25.51;37.57;94919.31;5077058;28;1046;-55
2023/05/23 10:27:57;;;;;;;;;;;;;;;26.07;36.51;94912.66;5077102;28;1076;-55
2023/05/23 10:30:27;;;;;;;;;;;;;;;26.40;35.46;94911.47;5076760;28;1041;-55
2023/05/23 10:32:54;;;;;;;;;;;;;;;26.70;34.89;94914.66;5076703;28;1026;-56
2023/05/23 10:35:24;;;;;;;;;;;;;;;26.53;35.50;94912.91;5076958;28;1071;-55
2023/05/23 10:38:09;;;;;;;;;;;;;;;26.30;35.51;94916.91;5077113;28;958;-55
2023/05/23 10:40:53;;;;;;;;;;;;;;;25.70;36.24;94914.25;5076503;28;1918;-55
2023/05/23 10:43:24;;;;;;;;;;;;;;;25.76;36.51;94900.63;5076363;28;1129;-55
2023/05/23 10:45:51;;;;;;;;;;;;;;;26.07;36.29;94897.03;5076821;28;1304;-55
2023/05/23 10:48:21;;;;;;;;;;;;;;;26.16;34.79;94902.00;5076560;28;966;-55
2023/05/23 10:51:07;;;;;;;;;;;;;;;26.01;35.48;94892.63;5076599;28;946;-55
2023/05/23 10:53:38;;;;;;;;;;;;;;;26.38;35.14;94888.97;5058403;28;1382;-55
2023/05/23 10:56:05;;;;;;;;;;;;;;;26.51;34.15;94895.91;5076358;28;1022;-55
2023/05/23 10:58:32;;;;;;;;;;;;;;;26.41;35.52;94884.91;5076388;28;1033;-55
2023/05/23 11:01:03;;;;;;;;;;;;;;;26.55;35.65;94890.69;5076325;28;1906;-55
2023/05/23 11:03:33;;;;;;;;;;;;;;;26.58;34.77;94884.66;5076045;28;991;-55
2023/05/23 11:06:00;;;;;;;;;;;;;;;27.05;35.96;94895.56;5076073;28;1856;-55
2023/05/23 11:08:28;;;;;;;;;;;;;;;27.07;34.50;94898.84;5076256;28;1621;-55
2023/05/23 11:10:58;;;;;;;;;;;;;;;27.07;33.91;94898.00;5076021;28;1242;-56
2023/05/23 11:13:24;;;;;;;;;;;;;;;26.55;33.80;94896.19;5076006;28;1025;-55
2023/05/23 11:15:50;;;;;;;;;;;;;;;26.06;33.91;94895.38;5076001;28;960;-55
2023/05/23 11:18:21;;;;;;;;;;;;;;;26.44;35.36;94890.66;5075995;28;996;-55
2023/05/23 11:20:48;;;;;;;;;;;;;;;26.56;33.82;94895.06;5076074;28;1902;-55
2023/05/23 11:23:14;;;;;;;;;;;;;;;26.75;35.19;94889.97;5075922;28;960;-54
2023/05/23 11:25:41;;;;;;;;;;;;;;;26.91;34.28;94888.94;5075960;28;1015;-55
2023/05/23 11:28:08;;;;;;;;;;;;;;;26.70;32.54;94890.78;5074376;28;1046;-55
2023/05/23 11:30:36;;;;;;;;;;;;;;;26.77;34.51;94883.13;5075564;28;1038;-55
2023/05/23 11:33:12;;;;;;;;;;;;;;;26.41;32.63;94885.72;5075490;28;1024;-55
2023/05/23 11:35:45;;;;;;;;;;;;;;;26.14;33.54;94885.84;5075566;28;1046;-54
2023/05/23 11:38:13;;;;;;;;;;;;;;;25.80;33.34;94868.88;5075573;28;986;-54
2023/05/23 11:40:40;;;;;;;;;;;;;;;25.33;34.92;94867.72;5075383;28;1906;-54
2023/05/23 11:43:06;;;;;;;;;;;;;;;24.91;35.19;94873.88;5075516;28;1101;-55
2023/05/23 11:45:34;;;;;;;;;;;;;;;25.24;34.45;94861.91;5075546;28;1076;-56
2023/05/23 11:48:07;;;;;;;;;;;;;;;25.62;33.33;94867.41;5075347;28;1056;-54
2023/05/23 11:50:33;;;;;;;;;;;;;;;25.75;32.47;94863.41;5075389;28;1024;-54
2023/05/23 11:52:59;;;;;;;;;;;;;;;25.53;33.25;94861.59;5075229;28;1047;-55
2023/05/23 11:55:26;;;;;;;;;;;;;;;25.41;33.58;94859.03;5075351;28;981;-54
2023/05/23 11:57:54;;;;;;;;;;;;;;;25.24;35.37;94853.69;5075117;28;1120;-55
2023/05/23 12:00:20;;;;;;;;;;;;;;;25.18;34.77;94853.88;5074866;28;1906;-54
2023/05/23 12:02:47;;;;;;;;;;;;;;;25.41;33.99;94861.78;5074942;28;1219;-54
2023/05/23 12:05:14;;;;;;;;;;;;;;;25.27;34.63;94846.88;5075177;28;1024;-55
2023/05/23 12:07:41;;;;;;;;;;;;;;;25.46;34.17;94850.88;5075220;28;1041;-55
2023/05/23 12:10:08;;;;;;;;;;;;;;;25.26;34.14;94846.03;5074773;28;1546;-55
2023/05/23 12:12:34;;;;;;;;;;;;;;;25.14;35.30;94848.13;5074841;28;950;-55
2023/05/23 12:15:00;;;;;;;;;;;;;;;25.03;35.96;94841.72;5074849;28;1005;-55
2023/05/23 12:17:26;;;;;;;;;;;;;;;25.08;34.81;94840.91;5074611;28;1037;-55
2023/05/23 12:19:53;;;;;;;;;;;;;;;25.55;33.98;94832.03;5074935;28;1991;-55
2023/05/23 12:22:23;;;;;;;;;;;;;;;25.95;34.11;94833.41;5074550;28;1030;-55
2023/05/23 12:24:53;;;;;;;;;;;;;;;25.85;33.47;94819.63;5074705;28;1282;-55
2023/05/23 12:27:25;;;;;;;;;;;;;;;25.80;34.21;94823.19;5074884;28;969;-55
2023/05/23 12:30:02;;;;;;;;;;;;;;;25.70;33.65;94828.59;5074706;28;998;-54
2023/05/23 12:32:28;;;;;;;;;;;;;;;25.44;34.54;94811.16;5074415;28;1009;-54
2023/05/23 12:34:55;;;;;;;;;;;;;;;25.48;35.92;94807.66;5073989;28;1993;-54
2023/05/23 12:37:23;;;;;;;;;;;;;;;25.66;35.54;94811.03;5074582;28;969;-54
2023/05/23 12:39:49;;;;;;;;;;;;;;;25.55;33.83;94820.28;5074148;28;1910;-54
2023/05/23 12:42:15;;;;;;;;;;;;;;;25.18;33.16;94818.34;5074134;28;1030;-54
2023/05/23 12:44:42;;;;;;;;;;;;;;;25.39;34.11;94820.16;5074055;28;1247;-54
2023/05/23 12:47:09;;;;;;;;;;;;;;;25.22;32.20;94819.44;5074050;28;914;-54
2023/05/23 12:49:35;;;;;;;;;;;;;;;25.11;34.06;94805.66;5074194;28;1295;-54
2023/05/23 12:52:01;;;;;;;;;;;;;;;25.11;34.00;94807.59;5074076;28;1108;-54
2023/05/23 12:54:27;;;;;;;;;;;;;;;25.04;33.27;94802.34;5074209;28;1018;-54
2023/05/23 12:56:53;;;;;;;;;;;;;;;25.50;34.12;94805.47;5073878;28;1093;-54